createdAt,value
2023-05-14T00:00:31.545Z,12.8
2023-05-14T00:04:35.554Z,12.6
2023-05-14T00:08:39.191Z,12.6
2023-05-14T00:10:41.095Z,12.6
2023-05-14T00:14:48.061Z,12.6
2023-05-14T00:18:51.888Z,12.6
2023-05-14T00:19:54.410Z,12.5
2023-05-14T00:34:10.880Z,12.5
2023-05-14T00:36:12.767Z,12.4
2023-05-14T00:38:14.701Z,12.4
2023-05-14T00:40:16.749Z,12.5
2023-05-14T00:46:25.623Z,12.4
2023-05-14T00:50:29.516Z,12.4
2023-05-14T00:58:40.584Z,12.2
2023-05-14T01:00:42.502Z,12.1
2023-05-14T01:02:44.430Z,12.1
2023-05-14T01:04:46.381Z,12.1
2023-05-14T01:06:48.249Z,12.2
2023-05-14T01:08:50.220Z,12.2
2023-05-14T01:10:55.248Z,11.8
2023-05-14T01:12:57.146Z,11.8
2023-05-14T01:16:01.766Z,12
2023-05-14T01:18:03.663Z,12.1
2023-05-14T01:20:05.685Z,11.9
2023-05-14T01:22:07.590Z,11.8
2023-05-14T01:24:12.710Z,11.7
2023-05-14T01:26:14.723Z,11.8
2023-05-14T01:30:18.662Z,12
2023-05-14T01:32:20.599Z,11.5
2023-05-14T01:34:22.515Z,11.7
2023-05-14T01:36:24.404Z,11.5
2023-05-14T01:38:29.529Z,11.6
2023-05-14T01:40:31.371Z,11.6
2023-05-14T01:42:33.352Z,11.5
2023-05-14T01:44:35.422Z,11.6
2023-05-14T01:46:37.455Z,11.4
2023-05-14T01:48:39.450Z,11.2
2023-05-14T01:50:41.355Z,11.5
2023-05-14T01:52:46.591Z,11.3
2023-05-14T01:54:48.613Z,11.4
2023-05-14T01:56:50.645Z,11.3
2023-05-14T01:58:52.646Z,11.2
2023-05-14T02:00:54.659Z,11.1
2023-05-14T02:02:56.722Z,11.1
2023-05-14T02:04:58.676Z,11.1
2023-05-14T02:07:03.948Z,11
2023-05-14T02:09:05.854Z,11.1
2023-05-14T02:11:07.850Z,10.9
2023-05-14T02:34:03.262Z,10.8
2023-05-14T02:36:05.270Z,10.6
2023-05-14T02:42:11.314Z,10.6
2023-05-14T02:44:13.303Z,10.6
2023-05-14T02:46:15.513Z,10.5
2023-05-14T02:48:20.593Z,10.6
2023-05-14T02:50:22.846Z,10.5
2023-05-14T02:54:26.622Z,10.5
2023-05-14T02:56:28.656Z,10.5
2023-05-14T02:58:30.672Z,10.3
2023-05-14T03:00:32.754Z,10.4
2023-05-14T03:02:39.596Z,10.4
2023-05-14T03:04:41.488Z,10.3
2023-05-14T03:06:43.468Z,10.4
2023-05-14T03:07:46.103Z,10.4
2023-05-14T03:11:50.115Z,10.3
2023-05-14T03:13:52.143Z,10.1
2023-05-14T03:15:57.418Z,10.3
2023-05-14T03:20:01.450Z,10.2
2023-05-14T03:22:03.392Z,10.1
2023-05-14T03:24:05.414Z,10.2
2023-05-14T03:26:07.413Z,10.2
2023-05-14T03:28:09.386Z,9.9
2023-05-14T03:34:18.622Z,10.2
2023-05-14T03:36:20.625Z,10.3
2023-05-14T03:40:24.865Z,10.1
2023-05-14T03:42:26.677Z,10.1
2023-05-14T03:44:31.929Z,10.2
2023-05-14T03:46:33.920Z,10.1
2023-05-14T03:50:37.926Z,9.5
2023-05-14T03:56:43.927Z,10.1
2023-05-14T03:58:49.144Z,10.2
2023-05-14T04:00:51.207Z,10
2023-05-14T04:02:53.300Z,10.2
2023-05-14T04:03:55.863Z,10.1
2023-05-14T04:05:57.804Z,10.1
2023-05-14T04:07:59.868Z,10.1
2023-05-14T04:10:04.181Z,9.9
2023-05-14T04:12:07.040Z,9.9
2023-05-14T04:14:09.085Z,10.2
2023-05-14T04:16:11.093Z,10.3
2023-05-14T04:18:13.133Z,10.1
2023-05-14T04:20:15.106Z,10.2
2023-05-14T04:22:17.126Z,10.4
2023-05-14T04:26:24.362Z,10.3
2023-05-14T04:28:26.365Z,10.4
2023-05-14T04:30:28.340Z,10.5
2023-05-14T04:34:32.354Z,10.6
2023-05-14T04:36:34.376Z,10.6
2023-05-14T04:38:36.363Z,10.8
2023-05-14T04:40:41.629Z,11.2
2023-05-14T04:46:47.616Z,11.2
2023-05-14T04:48:49.607Z,11.3
2023-05-14T04:50:51.634Z,11.3
2023-05-14T04:52:53.651Z,11.5
2023-05-14T04:54:58.873Z,12.5
2023-05-14T04:57:00.877Z,12.6
2023-05-14T04:59:02.917Z,13
2023-05-14T05:00:05.513Z,13.5
2023-05-14T05:04:09.556Z,13.7
2023-05-14T05:06:11.504Z,13.7
2023-05-14T05:12:20.577Z,13.1
2023-05-14T05:14:22.496Z,13.2
2023-05-14T05:16:24.541Z,13.4
2023-05-14T05:18:26.530Z,12.9
2023-05-14T05:20:28.443Z,12.6
2023-05-14T05:22:33.657Z,12.7
2023-05-14T05:24:35.598Z,12.5
2023-05-14T05:26:37.584Z,12.9
2023-05-14T05:28:39.614Z,13.5
2023-05-14T05:38:52.372Z,13.5
2023-05-14T05:40:54.282Z,13.2
2023-05-14T05:42:56.222Z,13.1
2023-05-14T05:44:58.102Z,12.8
2023-05-14T05:47:00.010Z,14
2023-05-14T05:49:02.065Z,14.5
2023-05-14T05:51:07.090Z,14.6
2023-05-14T05:53:09.053Z,14.5
2023-05-14T05:55:10.965Z,15
2023-05-14T06:03:48.910Z,13.2
2023-05-14T06:05:50.365Z,13.2
2023-05-14T06:07:52.269Z,13.2
2023-05-14T06:09:54.193Z,13.5
2023-05-14T06:13:57.946Z,13.8
2023-05-14T06:15:59.949Z,14
2023-05-14T06:18:04.966Z,14.1
2023-05-14T06:20:06.832Z,13.6
2023-05-14T06:22:08.873Z,13.9
2023-05-14T06:26:12.647Z,14
2023-05-14T06:28:14.557Z,14.2
2023-05-14T06:30:16.437Z,14.2
2023-05-14T06:32:21.616Z,14.4
2023-05-14T06:34:23.401Z,14.6
2023-05-14T06:36:25.286Z,14.6
2023-05-14T06:38:27.179Z,14.4
2023-05-14T06:42:30.947Z,14.3
2023-05-14T06:46:37.937Z,14
2023-05-14T06:50:41.725Z,14.2
2023-05-14T06:51:44.237Z,14
2023-05-14T06:55:48.104Z,14.1
2023-05-14T06:57:49.979Z,14.7
2023-05-14T07:08:02.577Z,16.6
2023-05-14T07:10:04.501Z,16.6
2023-05-14T07:14:11.397Z,14.7
2023-05-14T07:16:13.282Z,14.6
2023-05-14T07:18:15.151Z,15
2023-05-14T07:20:17.053Z,15.1
2023-05-14T07:22:18.909Z,16.2
2023-05-14T07:24:20.825Z,16.7
2023-05-14T07:26:22.687Z,16.1
2023-05-14T07:28:27.710Z,15.4
2023-05-14T07:30:29.618Z,15
2023-05-14T07:32:31.488Z,15.5
2023-05-14T07:34:33.366Z,15.5
2023-05-14T07:36:35.263Z,16
2023-05-14T07:38:37.139Z,16.1
2023-05-14T07:40:39.029Z,16.1
2023-05-14T07:42:44.012Z,16.3
2023-05-14T07:44:45.894Z,16.2
2023-05-14T07:46:47.787Z,16.5
2023-05-14T07:47:50.301Z,16.8
2023-05-14T07:56:00.887Z,17.7
2023-05-14T07:58:02.760Z,17.9
2023-05-14T08:00:04.628Z,18.5
2023-05-14T08:02:06.486Z,18.2
2023-05-14T08:04:08.454Z,17.5
2023-05-14T08:06:10.174Z,17.5
2023-05-14T08:10:17.079Z,17.8
2023-05-14T08:12:18.855Z,18.2
2023-05-14T08:14:20.764Z,18.8
2023-05-14T08:16:22.625Z,19.3
2023-05-14T08:18:24.442Z,19.6
2023-05-14T08:26:34.907Z,19.2
2023-05-14T08:34:43.960Z,19.4
2023-05-14T08:38:48.931Z,19.3
2023-05-14T08:40:50.769Z,19.4
2023-05-14T08:42:52.561Z,19.6
2023-05-14T08:43:55.051Z,20
2023-05-14T08:45:56.875Z,19.5
2023-05-14T08:47:58.744Z,19.4
2023-05-14T08:50:00.473Z,19.1
2023-05-14T08:52:06.982Z,19.3
2023-05-14T08:54:08.722Z,19.7
2023-05-14T08:56:10.509Z,19.5
2023-05-14T08:58:12.328Z,20
2023-05-14T09:00:14.127Z,19.5
2023-05-14T09:02:15.901Z,19.8
2023-05-14T09:04:17.747Z,19.7
2023-05-14T09:06:22.669Z,19.8
2023-05-14T09:08:24.452Z,20
2023-05-14T09:10:26.730Z,20.6
2023-05-14T09:12:28.030Z,20
2023-05-14T09:14:29.823Z,20.3
2023-05-14T09:24:41.921Z,20.5
2023-05-14T09:26:43.673Z,20.5
2023-05-14T09:36:55.729Z,20.3
2023-05-14T09:41:25.890Z,20.1
2023-05-14T09:43:27.618Z,20.5
2023-05-14T09:45:29.433Z,20.7
2023-05-14T09:47:34.424Z,21.2
2023-05-14T09:49:36.121Z,21.8
2023-05-14T09:51:37.902Z,20.6
2023-05-14T09:53:39.661Z,20.5
2023-05-14T09:55:41.439Z,20.4
2023-05-14T09:57:43.222Z,20.5
2023-05-14T09:59:44.981Z,20.6
2023-05-14T10:01:49.918Z,20.2
2023-05-14T10:03:51.724Z,20.4
2023-05-14T10:05:53.464Z,19.9
2023-05-14T10:07:55.249Z,20.2
2023-05-14T10:09:58.228Z,20.3
2023-05-14T10:11:58.804Z,20.7
2023-05-14T10:14:00.574Z,20.7
2023-05-14T10:16:05.515Z,20.6
2023-05-14T10:18:07.379Z,20.9
2023-05-14T10:20:09.025Z,21.1
2023-05-14T10:28:16.109Z,21.1
2023-05-14T10:30:21.125Z,21.4
2023-05-14T10:37:28.833Z,21
2023-05-14T10:41:32.385Z,20.9
2023-05-14T10:45:39.050Z,21.2
2023-05-14T10:49:44.049Z,21.6
2023-05-14T10:51:44.454Z,21.6
2023-05-14T10:53:46.079Z,22
2023-05-14T10:55:47.858Z,21.8
2023-05-14T10:57:52.820Z,21.8
2023-05-14T10:59:54.542Z,21.8
2023-05-14T11:01:56.336Z,21.6
2023-05-14T11:12:08.220Z,21.5
2023-05-14T11:14:10.223Z,21.8
2023-05-14T11:26:23.668Z,22.1
2023-05-14T11:30:27.178Z,22.3
2023-05-14T11:31:29.636Z,22.3
2023-05-14T11:33:31.353Z,22.6
2023-05-14T11:41:41.580Z,22.4
2023-05-14T11:43:43.309Z,22.2
2023-05-14T11:45:45.136Z,22.4
2023-05-14T11:47:46.932Z,22.5
2023-05-14T11:49:48.630Z,22
2023-05-14T11:51:50.360Z,22.4
2023-05-14T11:53:55.272Z,22.5
2023-05-14T11:55:57.015Z,22.2
2023-05-14T11:57:58.785Z,22.2
2023-05-14T12:00:00.519Z,22.4
2023-05-14T12:02:02.367Z,22.3
2023-05-14T12:04:04.046Z,22.4
2023-05-14T12:06:05.732Z,22.1
2023-05-14T12:08:10.673Z,22.7
2023-05-14T12:10:12.416Z,22.5
2023-05-14T12:12:14.170Z,22.9
2023-05-14T12:14:15.898Z,22.9
2023-05-14T12:16:17.785Z,22.5
2023-05-14T12:18:24.500Z,22.1
2023-05-14T12:20:21.174Z,22.7
2023-05-14T12:22:26.081Z,22.7
2023-05-14T12:24:27.932Z,22.9
2023-05-14T12:26:29.556Z,22.8
2023-05-14T12:27:32.031Z,22.6
2023-05-14T12:31:35.511Z,22.4
2023-05-14T12:33:37.289Z,23.1
2023-05-14T12:35:42.150Z,22.8
2023-05-14T12:37:43.895Z,22.8
2023-05-14T12:39:45.628Z,22.4
2023-05-14T12:41:47.362Z,22.8
2023-05-14T12:43:49.100Z,23
2023-05-14T12:45:50.828Z,22.9
2023-05-14T12:47:52.594Z,22.7
2023-05-14T12:49:57.496Z,22.6
2023-05-14T12:52:17.074Z,22.5
2023-05-14T12:54:00.935Z,22.8
2023-05-14T12:56:02.685Z,23.1
2023-05-14T12:58:04.416Z,23.6
2023-05-14T13:00:06.181Z,23.5
2023-05-14T13:02:07.903Z,23.3
2023-05-14T13:04:12.825Z,23.5
2023-05-14T13:06:14.530Z,22.9
2023-05-14T13:10:17.986Z,22.8
2023-05-14T13:14:21.437Z,23.2
2023-05-14T13:18:28.103Z,23.5
2023-05-14T13:24:59.914Z,24.1
2023-05-14T13:29:03.393Z,23.6
2023-05-14T13:31:08.297Z,23.6
2023-05-14T13:33:10.049Z,23.8
2023-05-14T13:35:11.722Z,23.8
2023-05-14T13:37:13.459Z,23.7
2023-05-14T13:39:15.184Z,23.6
2023-05-14T13:41:16.866Z,23.2
2023-05-14T13:43:18.642Z,23.1
2023-05-14T13:45:23.752Z,22.9
2023-05-14T13:47:25.273Z,23.4
2023-05-14T13:49:26.965Z,23.2
2023-05-14T13:51:28.762Z,23.3
2023-05-14T13:53:30.453Z,23
2023-05-14T13:55:32.186Z,22.6
2023-05-14T13:57:33.901Z,22.7
2023-05-14T13:59:38.817Z,22.6
2023-05-14T14:01:40.643Z,22.6
2023-05-14T14:03:42.290Z,22.6
2023-05-14T14:05:44.129Z,22.7
2023-05-14T14:07:46.986Z,22.7
2023-05-14T14:09:47.527Z,22.8
2023-05-14T14:11:49.303Z,22.4
2023-05-14T14:13:54.233Z,22.5
2023-05-14T14:15:56.001Z,22.5
2023-05-14T14:17:57.751Z,22.4
2023-05-14T14:19:00.252Z,22.3
2023-05-14T14:21:01.896Z,22.2
2023-05-14T14:23:03.654Z,22.3
2023-05-14T14:27:10.357Z,22.6
2023-05-14T14:33:15.611Z,23
2023-05-14T14:43:29.100Z,22.5
2023-05-14T14:47:32.646Z,23.2
2023-05-14T14:55:42.750Z,23.5
2023-05-14T15:01:48.103Z,23
2023-05-14T15:03:49.830Z,23.1
2023-05-14T15:07:53.217Z,22.4
2023-05-14T15:09:58.141Z,22.1
2023-05-14T15:27:17.784Z,22.1
2023-05-14T15:43:34.977Z,21.6
2023-05-14T15:45:36.753Z,21.5
2023-05-14T15:51:45.236Z,22
2023-05-14T15:53:46.984Z,21.7
2023-05-14T15:55:48.766Z,21.5
2023-05-14T15:59:52.292Z,21.6
2023-05-14T16:01:54.212Z,21.5
2023-05-14T16:03:55.991Z,21.8
2023-05-14T16:08:02.608Z,21.3
2023-05-14T16:10:04.458Z,21.3
2023-05-14T16:11:06.844Z,21.4
2023-05-14T16:17:12.186Z,21.2
2023-05-14T16:19:17.209Z,21
2023-05-14T16:21:18.934Z,20.9
2023-05-14T16:23:20.699Z,21
2023-05-14T16:25:22.526Z,21
2023-05-14T16:27:24.278Z,20.8
2023-05-14T16:29:26.090Z,21.1
2023-05-14T16:31:27.919Z,21.3
2023-05-14T16:33:32.843Z,21
2023-05-14T16:35:34.610Z,21
2023-05-14T16:39:38.215Z,20.4
2023-05-14T16:45:43.816Z,20.8
2023-05-14T16:47:48.597Z,21.1
2023-05-14T16:49:50.385Z,20.8
2023-05-14T16:51:52.176Z,20.9
2023-05-14T16:53:55.437Z,20.7
2023-05-14T16:55:55.779Z,20.7
2023-05-14T16:57:57.563Z,20.8
2023-05-14T16:59:59.350Z,21
2023-05-14T17:02:04.481Z,21
2023-05-14T17:04:06.113Z,21
2023-05-14T17:06:07.905Z,20.5
2023-05-14T17:08:36.381Z,20.3
2023-05-14T17:10:38.172Z,20.3
2023-05-14T17:12:39.976Z,20.4
2023-05-14T17:14:45.116Z,20.5
2023-05-14T17:16:46.755Z,20.2
2023-05-14T17:18:48.565Z,20.2
2023-05-14T17:20:50.367Z,20
2023-05-14T17:22:52.170Z,20.2
2023-05-14T17:24:53.952Z,19.8
2023-05-14T17:26:55.801Z,19.8
2023-05-14T17:29:00.748Z,19.5
2023-05-14T17:31:02.636Z,19.7
2023-05-14T17:33:04.524Z,19.4
2023-05-14T17:43:16.630Z,18.7
2023-05-14T17:51:23.921Z,18.2
2023-05-14T17:53:25.814Z,18.4
2023-05-14T17:55:27.586Z,18.1
2023-05-14T17:57:32.580Z,17.9
2023-05-14T18:02:38.866Z,17.7
2023-05-14T18:04:40.587Z,17.5
2023-05-14T18:06:42.435Z,17.5
2023-05-14T18:08:44.227Z,17.2
2023-05-14T18:23:00.360Z,16.7
2023-05-14T18:25:05.319Z,16.1
2023-05-14T18:27:07.215Z,16.4
2023-05-14T18:29:09.063Z,16.4
2023-05-14T18:31:10.939Z,16.2
2023-05-14T18:33:12.814Z,16.1
2023-05-14T18:35:14.609Z,16.1
2023-05-14T18:39:21.481Z,15.8
2023-05-14T18:41:23.343Z,15.8
2023-05-14T18:43:25.214Z,16
2023-05-14T18:45:27.121Z,15.8
2023-05-14T18:47:28.996Z,16.3
2023-05-14T18:49:30.854Z,15.5
2023-05-14T18:51:32.703Z,15.5
2023-05-14T18:53:37.720Z,15.6
2023-05-14T18:55:39.573Z,15.6
2023-05-14T18:57:41.459Z,15.3
2023-05-14T18:58:43.987Z,15.5
2023-05-14T19:08:56.506Z,15.3
2023-05-14T19:10:58.395Z,15.2
2023-05-14T19:13:00.259Z,15.4
2023-05-14T19:15:02.170Z,15.5
2023-05-14T19:19:05.991Z,15.2
2023-05-14T19:21:10.941Z,14.7
2023-05-14T19:23:12.827Z,14.9
2023-05-14T19:25:14.694Z,14.5
2023-05-14T19:27:16.576Z,14.6
2023-05-14T19:33:22.256Z,15
2023-05-14T19:39:31.046Z,14.4
2023-05-14T19:41:32.925Z,14.5
2023-05-14T19:43:34.821Z,14.2
2023-05-14T19:45:36.711Z,14.6
2023-05-14T19:47:38.706Z,14.3
2023-05-14T19:56:51.782Z,14.3
2023-05-14T19:58:53.691Z,14
2023-05-14T20:03:00.627Z,14.1
2023-05-14T20:07:04.316Z,13.9
2023-05-14T20:09:06.249Z,14
2023-05-14T20:11:08.152Z,14.1
2023-05-14T20:25:25.943Z,13.7
2023-05-14T20:27:26.401Z,13.9
2023-05-14T20:29:28.296Z,13.8
2023-05-14T20:31:33.272Z,14
2023-05-14T20:35:38.632Z,13.7
2023-05-14T20:56:27.360Z,13.5
2023-05-14T20:58:32.419Z,13.6
2023-05-14T21:00:34.316Z,13.3
2023-05-14T21:02:36.288Z,13.5
2023-05-14T21:06:39.992Z,13.6
2023-05-14T21:10:43.826Z,13.4
2023-05-14T21:12:48.849Z,13.4
2023-05-14T21:16:52.670Z,13.3
2023-05-14T21:27:05.275Z,13.1
2023-05-14T21:29:07.229Z,13.2
2023-05-14T21:31:09.168Z,13.2
2023-05-14T21:33:11.020Z,12.9
2023-05-14T21:35:12.930Z,13.1
2023-05-14T21:37:14.827Z,12.8
2023-05-14T21:39:16.704Z,13
2023-05-14T21:41:21.742Z,13.1
2023-05-14T21:43:23.643Z,12.9
2023-05-14T21:45:25.749Z,13
2023-05-14T21:46:28.068Z,13
2023-05-14T21:50:31.833Z,12.9
2023-05-14T21:52:33.718Z,13.1
2023-05-14T21:54:38.752Z,12.9
2023-05-14T21:56:40.649Z,12.8
2023-05-14T21:58:42.572Z,12.9
2023-05-14T22:00:44.505Z,12.7
2023-05-14T22:04:48.361Z,12.6
2023-05-14T22:08:55.316Z,12.4
2023-05-14T22:10:57.243Z,12.6
2023-05-14T22:12:59.275Z,12.7
2023-05-14T22:27:16.059Z,12.3
2023-05-14T22:29:17.949Z,12.3
2023-05-14T22:31:19.909Z,12.2
2023-05-14T22:35:24.048Z,11.7
2023-05-14T22:37:28.767Z,12
2023-05-14T22:39:30.798Z,12.2
2023-05-14T22:41:32.727Z,12.1
2023-05-14T22:42:35.205Z,12.1
2023-05-14T22:46:39.110Z,12.1
2023-05-14T22:48:40.904Z,12.1
2023-05-14T22:50:46.088Z,12
2023-05-14T22:52:48.079Z,11.9
2023-05-14T22:54:49.987Z,12
2023-05-14T23:05:03.058Z,11.6
2023-05-14T23:07:05.080Z,11.8
2023-05-14T23:11:09.095Z,11.7
2023-05-14T23:13:11.120Z,11.4
2023-05-14T23:15:13.049Z,11.6
2023-05-14T23:17:15.019Z,11.7
2023-05-14T23:19:20.439Z,11.6
2023-05-14T23:21:22.201Z,11.7
2023-05-14T23:23:24.089Z,11.6
2023-05-14T23:25:26.387Z,11.6
2023-05-14T23:27:28.118Z,11.5
2023-05-14T23:29:29.994Z,11.5
2023-05-14T23:31:32.108Z,11.5
2023-05-14T23:33:37.260Z,11.3
2023-05-14T23:35:39.274Z,11.3
2023-05-14T23:38:43.894Z,11.3
2023-05-14T23:40:45.921Z,11.4
2023-05-14T23:42:47.917Z,11.3
2023-05-14T23:44:49.933Z,11.5
2023-05-14T23:46:55.235Z,11.4
2023-05-14T23:48:57.146Z,11.3
2023-05-14T23:50:59.108Z,11.3
2023-05-14T23:53:01.115Z,11.2
2023-05-14T23:55:03.100Z,11.3
2023-05-14T23:57:05.035Z,11.3
2023-05-14T23:59:07.046Z,11.3
